sensor_id;sensor_type;location;lat;lon;timestamp;P1;durP1;ratioP1;P2;durP2;ratioP2
20170;SDS011;10245;51.344;6.620;2023-03-01T00:00:23;12.83;;;8.30;;
20170;SDS011;10245;51.344;6.620;2023-03-01T00:02:47;13.40;;;7.63;;
20170;SDS011;10245;51.344;6.620;2023-03-01T00:05:10;11.20;;;7.33;;
20170;SDS011;10245;51.344;6.620;2023-03-01T00:07:33;12.57;;;7.33;;
20170;SDS011;10245;51.344;6.620;2023-03-01T00:09:57;12.47;;;7.73;;
20170;SDS011;10245;51.344;6.620;2023-03-01T00:12:21;11.63;;;7.40;;
20170;SDS011;10245;51.344;6.620;2023-03-01T00:14:45;11.43;;;6.93;;
20170;SDS011;10245;51.344;6.620;2023-03-01T00:17:08;13.67;;;7.27;;
20170;SDS011;10245;51.344;6.620;2023-03-01T00:19:32;12.60;;;8.17;;
20170;SDS011;10245;51.344;6.620;2023-03-01T00:21:55;13.20;;;7.70;;
20170;SDS011;10245;51.344;6.620;2023-03-01T00:24:18;12.37;;;7.50;;
20170;SDS011;10245;51.344;6.620;2023-03-01T00:26:42;10.10;;;7.10;;
20170;SDS011;10245;51.344;6.620;2023-03-01T00:29:07;11.43;;;7.65;;
20170;SDS011;10245;51.344;6.620;2023-03-01T00:31:30;13.43;;;8.03;;
20170;SDS011;10245;51.344;6.620;2023-03-01T00:33:56;13.30;;;7.07;;
20170;SDS011;10245;51.344;6.620;2023-03-01T00:36:24;10.43;;;7.20;;
20170;SDS011;10245;51.344;6.620;2023-03-01T00:38:50;10.87;;;7.40;;
20170;SDS011;10245;51.344;6.620;2023-03-01T00:41:14;12.23;;;7.43;;
20170;SDS011;10245;51.344;6.620;2023-03-01T00:43:39;13.03;;;7.50;;
20170;SDS011;10245;51.344;6.620;2023-03-01T00:46:04;11.67;;;7.20;;
20170;SDS011;10245;51.344;6.620;2023-03-01T00:48:30;9.53;;;7.40;;
20170;SDS011;10245;51.344;6.620;2023-03-01T00:50:53;10.20;;;7.85;;
20170;SDS011;10245;51.344;6.620;2023-03-01T00:53:17;13.33;;;8.03;;
20170;SDS011;10245;51.344;6.620;2023-03-01T00:55:40;12.03;;;8.10;;
20170;SDS011;10245;51.344;6.620;2023-03-01T00:58:03;16.10;;;8.52;;
20170;SDS011;10245;51.344;6.620;2023-03-01T01:00:27;11.15;;;7.38;;
20170;SDS011;10245;51.344;6.620;2023-03-01T01:02:52;11.93;;;7.63;;
20170;SDS011;10245;51.344;6.620;2023-03-01T01:05:15;11.60;;;7.97;;
20170;SDS011;10245;51.344;6.620;2023-03-01T01:07:42;9.93;;;7.32;;
20170;SDS011;10245;51.344;6.620;2023-03-01T01:10:05;12.50;;;8.90;;
20170;SDS011;10245;51.344;6.620;2023-03-01T01:12:34;13.83;;;8.73;;
20170;SDS011;10245;51.344;6.620;2023-03-01T01:14:58;10.40;;;7.50;;
20170;SDS011;10245;51.344;6.620;2023-03-01T01:17:21;11.77;;;8.38;;
20170;SDS011;10245;51.344;6.620;2023-03-01T01:19:46;12.47;;;8.30;;
20170;SDS011;10245;51.344;6.620;2023-03-01T01:22:10;11.95;;;7.80;;
20170;SDS011;10245;51.344;6.620;2023-03-01T01:24:33;11.53;;;7.53;;
20170;SDS011;10245;51.344;6.620;2023-03-01T01:26:57;11.70;;;8.40;;
20170;SDS011;10245;51.344;6.620;2023-03-01T01:29:21;12.60;;;8.70;;
20170;SDS011;10245;51.344;6.620;2023-03-01T01:31:44;14.32;;;8.05;;
20170;SDS011;10245;51.344;6.620;2023-03-01T01:34:08;13.63;;;8.20;;
20170;SDS011;10245;51.344;6.620;2023-03-01T01:36:38;13.33;;;8.53;;
20170;SDS011;10245;51.344;6.620;2023-03-01T01:39:02;10.85;;;8.20;;
20170;SDS011;10245;51.344;6.620;2023-03-01T01:41:27;12.47;;;8.63;;
20170;SDS011;10245;51.344;6.620;2023-03-01T01:46:38;16.80;;;8.37;;
20170;SDS011;10245;51.344;6.620;2023-03-01T01:49:05;11.83;;;8.70;;
20170;SDS011;10245;51.344;6.620;2023-03-01T01:51:37;15.03;;;9.07;;
20170;SDS011;10245;51.344;6.620;2023-03-01T01:54:06;12.37;;;7.40;;
20170;SDS011;10245;51.344;6.620;2023-03-01T01:56:35;15.07;;;8.83;;
20170;SDS011;10245;51.344;6.620;2023-03-01T01:59:00;11.23;;;7.97;;
20170;SDS011;10245;51.344;6.620;2023-03-01T02:01:24;11.97;;;8.03;;
20170;SDS011;10245;51.344;6.620;2023-03-01T02:03:48;15.13;;;9.07;;
20170;SDS011;10245;51.344;6.620;2023-03-01T02:06:12;13.60;;;8.63;;
20170;SDS011;10245;51.344;6.620;2023-03-01T02:08:44;15.20;;;8.93;;
20170;SDS011;10245;51.344;6.620;2023-03-01T02:11:10;15.23;;;8.60;;
20170;SDS011;10245;51.344;6.620;2023-03-01T02:13:36;18.60;;;9.70;;
20170;SDS011;10245;51.344;6.620;2023-03-01T02:16:02;12.40;;;8.27;;
20170;SDS011;10245;51.344;6.620;2023-03-01T02:18:26;14.03;;;9.47;;
20170;SDS011;10245;51.344;6.620;2023-03-01T02:21:00;14.60;;;8.27;;
20170;SDS011;10245;51.344;6.620;2023-03-01T02:23:33;13.47;;;8.63;;
20170;SDS011;10245;51.344;6.620;2023-03-01T02:26:00;13.17;;;7.93;;
20170;SDS011;10245;51.344;6.620;2023-03-01T02:28:31;13.10;;;9.50;;
20170;SDS011;10245;51.344;6.620;2023-03-01T02:30:56;16.77;;;9.13;;
20170;SDS011;10245;51.344;6.620;2023-03-01T02:33:37;13.93;;;8.83;;
20170;SDS011;10245;51.344;6.620;2023-03-01T02:36:03;11.50;;;8.07;;
20170;SDS011;10245;51.344;6.620;2023-03-01T02:38:30;13.70;;;9.60;;
20170;SDS011;10245;51.344;6.620;2023-03-01T02:40:54;15.20;;;9.50;;
20170;SDS011;10245;51.344;6.620;2023-03-01T02:43:20;13.47;;;9.63;;
20170;SDS011;10245;51.344;6.620;2023-03-01T02:45:50;14.60;;;9.10;;
20170;SDS011;10245;51.344;6.620;2023-03-01T02:48:14;14.63;;;9.30;;
20170;SDS011;10245;51.344;6.620;2023-03-01T02:50:46;13.53;;;8.87;;
20170;SDS011;10245;51.344;6.620;2023-03-01T02:53:27;15.73;;;9.57;;
20170;SDS011;10245;51.344;6.620;2023-03-01T02:55:58;13.33;;;9.20;;
20170;SDS011;10245;51.344;6.620;2023-03-01T02:58:23;13.77;;;9.10;;
20170;SDS011;10245;51.344;6.620;2023-03-01T03:00:47;14.17;;;8.53;;
20170;SDS011;10245;51.344;6.620;2023-03-01T03:03:12;11.77;;;9.50;;
20170;SDS011;10245;51.344;6.620;2023-03-01T03:05:38;11.83;;;9.23;;
20170;SDS011;10245;51.344;6.620;2023-03-01T03:08:02;11.77;;;8.50;;
20170;SDS011;10245;51.344;6.620;2023-03-01T03:10:30;14.47;;;9.23;;
20170;SDS011;10245;51.344;6.620;2023-03-01T03:12:58;13.20;;;9.57;;
20170;SDS011;10245;51.344;6.620;2023-03-01T03:15:24;12.60;;;9.50;;
20170;SDS011;10245;51.344;6.620;2023-03-01T03:17:50;15.37;;;9.43;;
20170;SDS011;10245;51.344;6.620;2023-03-01T03:20:17;14.57;;;8.90;;
20170;SDS011;10245;51.344;6.620;2023-03-01T03:22:42;13.10;;;9.87;;
20170;SDS011;10245;51.344;6.620;2023-03-01T03:25:06;16.13;;;9.50;;
20170;SDS011;10245;51.344;6.620;2023-03-01T03:27:31;13.53;;;8.80;;
20170;SDS011;10245;51.344;6.620;2023-03-01T03:29:55;12.93;;;10.00;;
20170;SDS011;10245;51.344;6.620;2023-03-01T03:32:18;14.73;;;9.50;;
20170;SDS011;10245;51.344;6.620;2023-03-01T03:34:41;15.47;;;9.93;;
20170;SDS011;10245;51.344;6.620;2023-03-01T03:37:06;11.73;;;8.80;;
20170;SDS011;10245;51.344;6.620;2023-03-01T03:39:50;15.10;;;9.97;;
20170;SDS011;10245;51.344;6.620;2023-03-01T03:42:16;13.67;;;9.93;;
20170;SDS011;10245;51.344;6.620;2023-03-01T03:44:39;15.30;;;10.27;;
20170;SDS011;10245;51.344;6.620;2023-03-01T03:47:02;12.23;;;9.43;;
20170;SDS011;10245;51.344;6.620;2023-03-01T03:49:25;12.40;;;8.90;;
20170;SDS011;10245;51.344;6.620;2023-03-01T03:51:49;14.70;;;9.97;;
20170;SDS011;10245;51.344;6.620;2023-03-01T03:54:13;14.60;;;9.57;;
20170;SDS011;10245;51.344;6.620;2023-03-01T03:56:38;13.10;;;9.60;;
20170;SDS011;10245;51.344;6.620;2023-03-01T03:59:01;13.93;;;9.40;;
20170;SDS011;10245;51.344;6.620;2023-03-01T04:01:24;12.63;;;9.53;;
20170;SDS011;10245;51.344;6.620;2023-03-01T04:03:48;12.93;;;9.80;;
20170;SDS011;10245;51.344;6.620;2023-03-01T04:06:15;13.17;;;9.30;;
20170;SDS011;10245;51.344;6.620;2023-03-01T04:08:39;13.67;;;10.20;;
20170;SDS011;10245;51.344;6.620;2023-03-01T04:11:04;15.07;;;10.70;;
20170;SDS011;10245;51.344;6.620;2023-03-01T04:13:42;15.07;;;10.10;;
20170;SDS011;10245;51.344;6.620;2023-03-01T04:16:06;14.43;;;9.97;;
20170;SDS011;10245;51.344;6.620;2023-03-01T04:18:29;15.67;;;9.50;;
20170;SDS011;10245;51.344;6.620;2023-03-01T04:20:52;14.83;;;9.33;;
20170;SDS011;10245;51.344;6.620;2023-03-01T04:23:18;14.83;;;9.57;;
20170;SDS011;10245;51.344;6.620;2023-03-01T04:25:45;16.80;;;10.27;;
20170;SDS011;10245;51.344;6.620;2023-03-01T04:28:16;15.57;;;9.63;;
20170;SDS011;10245;51.344;6.620;2023-03-01T04:30:39;17.73;;;9.70;;
20170;SDS011;10245;51.344;6.620;2023-03-01T04:33:03;13.20;;;9.43;;
20170;SDS011;10245;51.344;6.620;2023-03-01T04:35:27;16.77;;;9.97;;
20170;SDS011;10245;51.344;6.620;2023-03-01T04:37:51;14.03;;;9.77;;
20170;SDS011;10245;51.344;6.620;2023-03-01T04:40:14;14.67;;;9.57;;
20170;SDS011;10245;51.344;6.620;2023-03-01T04:42:38;17.93;;;10.80;;
20170;SDS011;10245;51.344;6.620;2023-03-01T04:45:03;16.03;;;10.23;;
20170;SDS011;10245;51.344;6.620;2023-03-01T04:47:34;17.00;;;11.13;;
20170;SDS011;10245;51.344;6.620;2023-03-01T04:49:59;16.53;;;9.97;;
20170;SDS011;10245;51.344;6.620;2023-03-01T04:52:22;15.93;;;9.73;;
20170;SDS011;10245;51.344;6.620;2023-03-01T04:54:46;14.77;;;10.07;;
20170;SDS011;10245;51.344;6.620;2023-03-01T04:57:09;18.23;;;10.23;;
20170;SDS011;10245;51.344;6.620;2023-03-01T04:59:33;14.60;;;10.03;;
20170;SDS011;10245;51.344;6.620;2023-03-01T05:01:58;19.03;;;10.57;;
20170;SDS011;10245;51.344;6.620;2023-03-01T05:04:22;26.50;;;11.07;;
20170;SDS011;10245;51.344;6.620;2023-03-01T05:06:47;19.47;;;12.47;;
20170;SDS011;10245;51.344;6.620;2023-03-01T05:09:10;16.00;;;10.87;;
20170;SDS011;10245;51.344;6.620;2023-03-01T05:11:34;14.93;;;9.63;;
20170;SDS011;10245;51.344;6.620;2023-03-01T05:13:58;18.80;;;11.97;;
20170;SDS011;10245;51.344;6.620;2023-03-01T05:16:21;17.07;;;10.77;;
20170;SDS011;10245;51.344;6.620;2023-03-01T05:18:46;15.60;;;10.67;;
20170;SDS011;10245;51.344;6.620;2023-03-01T05:21:12;17.60;;;10.53;;
20170;SDS011;10245;51.344;6.620;2023-03-01T05:23:38;16.50;;;10.20;;
20170;SDS011;10245;51.344;6.620;2023-03-01T05:26:02;15.77;;;10.37;;
20170;SDS011;10245;51.344;6.620;2023-03-01T05:28:31;13.00;;;10.03;;
20170;SDS011;10245;51.344;6.620;2023-03-01T05:30:55;16.40;;;11.47;;
20170;SDS011;10245;51.344;6.620;2023-03-01T05:33:20;40.60;;;28.53;;
20170;SDS011;10245;51.344;6.620;2023-03-01T05:35:44;17.67;;;12.27;;
20170;SDS011;10245;51.344;6.620;2023-03-01T05:38:10;15.07;;;9.80;;
20170;SDS011;10245;51.344;6.620;2023-03-01T05:40:35;16.10;;;11.07;;
20170;SDS011;10245;51.344;6.620;2023-03-01T05:42:58;22.57;;;11.27;;
20170;SDS011;10245;51.344;6.620;2023-03-01T05:45:22;15.33;;;9.70;;
20170;SDS011;10245;51.344;6.620;2023-03-01T05:47:48;19.40;;;11.03;;
20170;SDS011;10245;51.344;6.620;2023-03-01T05:50:13;16.13;;;10.17;;
20170;SDS011;10245;51.344;6.620;2023-03-01T05:52:41;14.60;;;10.00;;
20170;SDS011;10245;51.344;6.620;2023-03-01T05:55:05;16.03;;;9.53;;
20170;SDS011;10245;51.344;6.620;2023-03-01T05:57:30;16.87;;;10.73;;
20170;SDS011;10245;51.344;6.620;2023-03-01T05:59:53;16.13;;;10.67;;
20170;SDS011;10245;51.344;6.620;2023-03-01T06:02:16;14.10;;;9.93;;
20170;SDS011;10245;51.344;6.620;2023-03-01T06:04:40;16.77;;;10.93;;
20170;SDS011;10245;51.344;6.620;2023-03-01T06:07:03;18.80;;;11.50;;
20170;SDS011;10245;51.344;6.620;2023-03-01T06:09:28;18.93;;;10.23;;
20170;SDS011;10245;51.344;6.620;2023-03-01T06:11:52;17.50;;;11.43;;
20170;SDS011;10245;51.344;6.620;2023-03-01T06:14:16;18.13;;;11.33;;
20170;SDS011;10245;51.344;6.620;2023-03-01T06:16:39;16.80;;;11.53;;
20170;SDS011;10245;51.344;6.620;2023-03-01T06:19:03;15.67;;;10.50;;
20170;SDS011;10245;51.344;6.620;2023-03-01T06:21:26;14.70;;;10.07;;
20170;SDS011;10245;51.344;6.620;2023-03-01T06:23:50;14.93;;;11.03;;
20170;SDS011;10245;51.344;6.620;2023-03-01T06:26:15;15.57;;;10.23;;
20170;SDS011;10245;51.344;6.620;2023-03-01T06:28:38;16.27;;;10.47;;
20170;SDS011;10245;51.344;6.620;2023-03-01T06:31:02;16.43;;;10.50;;
20170;SDS011;10245;51.344;6.620;2023-03-01T06:33:30;17.70;;;10.63;;
20170;SDS011;10245;51.344;6.620;2023-03-01T06:35:54;18.07;;;10.60;;
20170;SDS011;10245;51.344;6.620;2023-03-01T06:38:18;17.83;;;11.43;;
20170;SDS011;10245;51.344;6.620;2023-03-01T06:40:41;20.97;;;11.23;;
20170;SDS011;10245;51.344;6.620;2023-03-01T06:43:06;16.73;;;10.57;;
20170;SDS011;10245;51.344;6.620;2023-03-01T06:45:29;19.03;;;11.17;;
20170;SDS011;10245;51.344;6.620;2023-03-01T06:48:00;22.73;;;11.67;;
20170;SDS011;10245;51.344;6.620;2023-03-01T06:50:26;17.93;;;11.67;;
20170;SDS011;10245;51.344;6.620;2023-03-01T06:52:50;18.33;;;11.13;;
20170;SDS011;10245;51.344;6.620;2023-03-01T06:55:18;15.77;;;10.83;;
20170;SDS011;10245;51.344;6.620;2023-03-01T06:57:42;18.13;;;11.23;;
20170;SDS011;10245;51.344;6.620;2023-03-01T07:00:07;19.90;;;11.60;;
20170;SDS011;10245;51.344;6.620;2023-03-01T07:02:32;15.00;;;10.60;;
20170;SDS011;10245;51.344;6.620;2023-03-01T07:04:56;17.07;;;11.93;;
20170;SDS011;10245;51.344;6.620;2023-03-01T07:07:19;14.73;;;11.13;;
20170;SDS011;10245;51.344;6.620;2023-03-01T07:09:42;19.77;;;11.50;;
20170;SDS011;10245;51.344;6.620;2023-03-01T07:12:06;21.60;;;12.80;;
20170;SDS011;10245;51.344;6.620;2023-03-01T07:14:29;23.03;;;12.87;;
20170;SDS011;10245;51.344;6.620;2023-03-01T07:16:54;25.03;;;12.90;;
20170;SDS011;10245;51.344;6.620;2023-03-01T07:19:18;20.13;;;11.70;;
20170;SDS011;10245;51.344;6.620;2023-03-01T07:21:41;17.37;;;12.27;;
20170;SDS011;10245;51.344;6.620;2023-03-01T07:24:05;22.73;;;12.23;;
20170;SDS011;10245;51.344;6.620;2023-03-01T07:26:29;22.57;;;13.23;;
20170;SDS011;10245;51.344;6.620;2023-03-01T07:28:53;26.23;;;14.37;;
20170;SDS011;10245;51.344;6.620;2023-03-01T07:31:16;21.77;;;13.30;;
20170;SDS011;10245;51.344;6.620;2023-03-01T07:33:41;19.97;;;12.60;;
20170;SDS011;10245;51.344;6.620;2023-03-01T07:36:06;23.43;;;12.87;;
20170;SDS011;10245;51.344;6.620;2023-03-01T07:38:31;25.87;;;12.67;;
20170;SDS011;10245;51.344;6.620;2023-03-01T07:40:57;22.73;;;12.73;;
20170;SDS011;10245;51.344;6.620;2023-03-01T07:43:22;21.23;;;12.70;;
20170;SDS011;10245;51.344;6.620;2023-03-01T07:45:45;27.03;;;13.07;;
20170;SDS011;10245;51.344;6.620;2023-03-01T07:48:09;23.33;;;12.20;;
20170;SDS011;10245;51.344;6.620;2023-03-01T07:50:34;21.70;;;12.87;;
20170;SDS011;10245;51.344;6.620;2023-03-01T07:52:57;16.77;;;11.47;;
20170;SDS011;10245;51.344;6.620;2023-03-01T07:55:20;20.43;;;11.83;;
20170;SDS011;10245;51.344;6.620;2023-03-01T07:57:44;15.50;;;10.43;;
20170;SDS011;10245;51.344;6.620;2023-03-01T08:00:07;17.97;;;10.77;;
20170;SDS011;10245;51.344;6.620;2023-03-01T08:02:33;18.10;;;11.27;;
20170;SDS011;10245;51.344;6.620;2023-03-01T08:04:56;17.90;;;11.13;;
20170;SDS011;10245;51.344;6.620;2023-03-01T08:07:21;16.47;;;10.73;;
20170;SDS011;10245;51.344;6.620;2023-03-01T08:09:44;15.37;;;10.37;;
20170;SDS011;10245;51.344;6.620;2023-03-01T08:12:08;16.10;;;10.30;;
20170;SDS011;10245;51.344;6.620;2023-03-01T08:14:31;20.90;;;11.20;;
20170;SDS011;10245;51.344;6.620;2023-03-01T08:16:55;26.33;;;11.67;;
20170;SDS011;10245;51.344;6.620;2023-03-01T08:19:19;17.33;;;11.30;;
20170;SDS011;10245;51.344;6.620;2023-03-01T08:21:42;23.47;;;12.33;;
20170;SDS011;10245;51.344;6.620;2023-03-01T08:24:07;21.33;;;12.93;;
20170;SDS011;10245;51.344;6.620;2023-03-01T08:26:32;24.42;;;13.80;;
20170;SDS011;10245;51.344;6.620;2023-03-01T08:28:56;15.60;;;10.50;;
20170;SDS011;10245;51.344;6.620;2023-03-01T08:31:20;18.10;;;11.10;;
20170;SDS011;10245;51.344;6.620;2023-03-01T08:33:46;19.47;;;10.90;;
20170;SDS011;10245;51.344;6.620;2023-03-01T08:36:12;18.73;;;11.63;;
20170;SDS011;10245;51.344;6.620;2023-03-01T08:38:36;18.00;;;11.40;;
20170;SDS011;10245;51.344;6.620;2023-03-01T08:41:02;21.27;;;11.27;;
20170;SDS011;10245;51.344;6.620;2023-03-01T08:43:26;22.77;;;11.80;;
20170;SDS011;10245;51.344;6.620;2023-03-01T08:45:49;18.57;;;11.60;;
20170;SDS011;10245;51.344;6.620;2023-03-01T08:48:13;20.40;;;10.65;;
20170;SDS011;10245;51.344;6.620;2023-03-01T08:50:36;18.93;;;10.40;;
20170;SDS011;10245;51.344;6.620;2023-03-01T08:53:02;15.00;;;10.53;;
20170;SDS011;10245;51.344;6.620;2023-03-01T08:55:25;21.88;;;10.60;;
20170;SDS011;10245;51.344;6.620;2023-03-01T08:57:50;20.73;;;11.35;;
20170;SDS011;10245;51.344;6.620;2023-03-01T09:00:14;18.80;;;11.18;;
20170;SDS011;10245;51.344;6.620;2023-03-01T09:02:38;22.65;;;12.10;;
20170;SDS011;10245;51.344;6.620;2023-03-01T09:05:01;15.80;;;9.67;;
20170;SDS011;10245;51.344;6.620;2023-03-01T09:07:25;17.95;;;10.93;;
20170;SDS011;10245;51.344;6.620;2023-03-01T09:09:50;18.92;;;10.90;;
20170;SDS011;10245;51.344;6.620;2023-03-01T09:12:14;17.45;;;11.70;;
20170;SDS011;10245;51.344;6.620;2023-03-01T09:14:39;18.27;;;11.23;;
20170;SDS011;10245;51.344;6.620;2023-03-01T09:17:03;23.92;;;11.10;;
20170;SDS011;10245;51.344;6.620;2023-03-01T09:19:26;18.10;;;10.57;;
20170;SDS011;10245;51.344;6.620;2023-03-01T09:21:50;20.52;;;10.65;;
20170;SDS011;10245;51.344;6.620;2023-03-01T09:24:14;17.83;;;10.40;;
20170;SDS011;10245;51.344;6.620;2023-03-01T09:26:37;17.27;;;9.95;;
20170;SDS011;10245;51.344;6.620;2023-03-01T09:29:01;17.80;;;10.98;;
20170;SDS011;10245;51.344;6.620;2023-03-01T09:31:26;16.83;;;9.75;;
20170;SDS011;10245;51.344;6.620;2023-03-01T09:33:50;15.90;;;9.80;;
20170;SDS011;10245;51.344;6.620;2023-03-01T09:36:16;15.57;;;9.57;;
20170;SDS011;10245;51.344;6.620;2023-03-01T09:38:42;14.80;;;9.55;;
20170;SDS011;10245;51.344;6.620;2023-03-01T09:41:09;16.27;;;9.60;;
20170;SDS011;10245;51.344;6.620;2023-03-01T09:43:47;14.48;;;9.57;;
20170;SDS011;10245;51.344;6.620;2023-03-01T09:46:17;13.23;;;9.32;;
20170;SDS011;10245;51.344;6.620;2023-03-01T09:48:42;14.88;;;9.88;;
20170;SDS011;10245;51.344;6.620;2023-03-01T09:51:31;16.42;;;9.57;;
20170;SDS011;10245;51.344;6.620;2023-03-01T09:53:57;11.80;;;8.88;;
20170;SDS011;10245;51.344;6.620;2023-03-01T09:56:24;14.80;;;10.00;;
20170;SDS011;10245;51.344;6.620;2023-03-01T09:58:54;14.95;;;10.20;;
20170;SDS011;10245;51.344;6.620;2023-03-01T10:01:30;14.68;;;9.40;;
20170;SDS011;10245;51.344;6.620;2023-03-01T10:04:23;17.90;;;9.82;;
20170;SDS011;10245;51.344;6.620;2023-03-01T10:07:00;16.13;;;9.82;;
20170;SDS011;10245;51.344;6.620;2023-03-01T10:09:38;15.27;;;9.60;;
20170;SDS011;10245;51.344;6.620;2023-03-01T10:12:04;11.65;;;9.48;;
20170;SDS011;10245;51.344;6.620;2023-03-01T10:14:34;15.38;;;9.45;;
20170;SDS011;10245;51.344;6.620;2023-03-01T10:17:01;15.98;;;9.98;;
20170;SDS011;10245;51.344;6.620;2023-03-01T10:19:30;16.40;;;10.00;;
20170;SDS011;10245;51.344;6.620;2023-03-01T10:22:00;15.77;;;10.13;;
20170;SDS011;10245;51.344;6.620;2023-03-01T10:24:31;14.07;;;9.88;;
20170;SDS011;10245;51.344;6.620;2023-03-01T10:26:58;17.92;;;10.40;;
20170;SDS011;10245;51.344;6.620;2023-03-01T10:29:29;14.93;;;9.90;;
20170;SDS011;10245;51.344;6.620;2023-03-01T10:31:58;16.77;;;10.02;;
20170;SDS011;10245;51.344;6.620;2023-03-01T10:34:26;13.70;;;9.65;;
20170;SDS011;10245;51.344;6.620;2023-03-01T10:36:55;14.88;;;9.35;;
20170;SDS011;10245;51.344;6.620;2023-03-01T10:39:21;17.75;;;9.95;;
20170;SDS011;10245;51.344;6.620;2023-03-01T10:41:57;20.45;;;10.63;;
20170;SDS011;10245;51.344;6.620;2023-03-01T10:44:38;14.30;;;9.05;;
20170;SDS011;10245;51.344;6.620;2023-03-01T10:47:11;14.38;;;9.30;;
20170;SDS011;10245;51.344;6.620;2023-03-01T10:49:54;15.02;;;9.15;;
20170;SDS011;10245;51.344;6.620;2023-03-01T10:52:24;13.10;;;8.82;;
20170;SDS011;10245;51.344;6.620;2023-03-01T10:54:52;14.07;;;9.20;;
20170;SDS011;10245;51.344;6.620;2023-03-01T10:57:29;12.25;;;8.05;;
20170;SDS011;10245;51.344;6.620;2023-03-01T11:00:14;15.00;;;8.57;;
20170;SDS011;10245;51.344;6.620;2023-03-01T11:02:48;15.95;;;8.75;;
20170;SDS011;10245;51.344;6.620;2023-03-01T11:05:25;12.75;;;8.70;;
20170;SDS011;10245;51.344;6.620;2023-03-01T11:07:50;13.82;;;8.63;;
20170;SDS011;10245;51.344;6.620;2023-03-01T11:10:17;11.30;;;8.35;;
20170;SDS011;10245;51.344;6.620;2023-03-01T11:12:42;12.63;;;8.93;;
20170;SDS011;10245;51.344;6.620;2023-03-01T11:15:08;14.85;;;8.43;;
20170;SDS011;10245;51.344;6.620;2023-03-01T11:17:45;16.67;;;8.80;;
20170;SDS011;10245;51.344;6.620;2023-03-01T11:20:20;10.40;;;8.60;;
20170;SDS011;10245;51.344;6.620;2023-03-01T11:22:54;10.93;;;7.88;;
20170;SDS011;10245;51.344;6.620;2023-03-01T11:25:23;11.02;;;8.18;;
20170;SDS011;10245;51.344;6.620;2023-03-01T11:27:51;11.23;;;7.80;;
20170;SDS011;10245;51.344;6.620;2023-03-01T11:30:18;12.35;;;7.47;;
20170;SDS011;10245;51.344;6.620;2023-03-01T11:32:47;13.85;;;8.13;;
20170;SDS011;10245;51.344;6.620;2023-03-01T11:35:24;10.82;;;7.72;;
20170;SDS011;10245;51.344;6.620;2023-03-01T11:37:55;12.30;;;7.75;;
20170;SDS011;10245;51.344;6.620;2023-03-01T11:40:28;10.90;;;7.30;;
20170;SDS011;10245;51.344;6.620;2023-03-01T11:42:59;10.85;;;8.25;;
20170;SDS011;10245;51.344;6.620;2023-03-01T11:45:30;9.50;;;7.32;;
20170;SDS011;10245;51.344;6.620;2023-03-01T11:48:07;11.02;;;7.57;;
20170;SDS011;10245;51.344;6.620;2023-03-01T11:51:12;10.85;;;7.82;;
20170;SDS011;10245;51.344;6.620;2023-03-01T11:53:50;13.00;;;8.32;;
20170;SDS011;10245;51.344;6.620;2023-03-01T11:56:27;15.75;;;8.77;;
20170;SDS011;10245;51.344;6.620;2023-03-01T11:59:03;10.15;;;6.68;;
20170;SDS011;10245;51.344;6.620;2023-03-01T12:05:30;9.13;;;6.65;;
20170;SDS011;10245;51.344;6.620;2023-03-01T12:08:32;10.18;;;6.57;;
20170;SDS011;10245;51.344;6.620;2023-03-01T12:11:02;10.90;;;6.68;;
20170;SDS011;10245;51.344;6.620;2023-03-01T12:13:41;10.00;;;6.68;;
20170;SDS011;10245;51.344;6.620;2023-03-01T12:16:33;9.10;;;7.20;;
20170;SDS011;10245;51.344;6.620;2023-03-01T12:19:26;11.80;;;6.45;;
20170;SDS011;10245;51.344;6.620;2023-03-01T12:22:04;7.95;;;6.25;;
20170;SDS011;10245;51.344;6.620;2023-03-01T12:25:03;11.45;;;6.10;;
20170;SDS011;10245;51.344;6.620;2023-03-01T12:28:03;10.80;;;6.53;;
20170;SDS011;10245;51.344;6.620;2023-03-01T12:30:45;8.85;;;6.45;;
20170;SDS011;10245;51.344;6.620;2023-03-01T12:33:26;8.25;;;6.07;;
20170;SDS011;10245;51.344;6.620;2023-03-01T12:38:50;12.68;;;7.35;;
20170;SDS011;10245;51.344;6.620;2023-03-01T12:44:18;10.52;;;6.82;;
20170;SDS011;10245;51.344;6.620;2023-03-01T12:46:57;12.60;;;6.90;;
20170;SDS011;10245;51.344;6.620;2023-03-01T12:49:37;8.20;;;6.10;;
20170;SDS011;10245;51.344;6.620;2023-03-01T12:52:07;10.80;;;6.20;;
20170;SDS011;10245;51.344;6.620;2023-03-01T12:54:36;10.80;;;6.25;;
20170;SDS011;10245;51.344;6.620;2023-03-01T12:57:02;10.43;;;7.32;;
20170;SDS011;10245;51.344;6.620;2023-03-01T12:59:41;9.02;;;5.95;;
20170;SDS011;10245;51.344;6.620;2023-03-01T13:02:13;7.88;;;6.05;;
20170;SDS011;10245;51.344;6.620;2023-03-01T13:04:49;9.90;;;6.15;;
20170;SDS011;10245;51.344;6.620;2023-03-01T13:07:28;8.38;;;6.07;;
20170;SDS011;10245;51.344;6.620;2023-03-01T13:10:04;9.52;;;6.40;;
20170;SDS011;10245;51.344;6.620;2023-03-01T13:12:47;13.45;;;7.03;;
20170;SDS011;10245;51.344;6.620;2023-03-01T13:15:31;9.63;;;6.50;;
20170;SDS011;10245;51.344;6.620;2023-03-01T13:17:57;11.57;;;6.22;;
20170;SDS011;10245;51.344;6.620;2023-03-01T13:20:23;13.73;;;7.25;;
20170;SDS011;10245;51.344;6.620;2023-03-01T13:22:59;10.90;;;6.47;;
20170;SDS011;10245;51.344;6.620;2023-03-01T13:25:27;10.65;;;6.47;;
20170;SDS011;10245;51.344;6.620;2023-03-01T13:34:44;11.60;;;7.22;;
20170;SDS011;10245;51.344;6.620;2023-03-01T13:37:24;8.50;;;6.55;;
20170;SDS011;10245;51.344;6.620;2023-03-01T13:39:57;13.23;;;6.85;;
20170;SDS011;10245;51.344;6.620;2023-03-01T13:42:37;10.13;;;6.95;;
20170;SDS011;10245;51.344;6.620;2023-03-01T13:45:25;10.48;;;6.82;;
20170;SDS011;10245;51.344;6.620;2023-03-01T13:48:01;11.90;;;6.63;;
20170;SDS011;10245;51.344;6.620;2023-03-01T13:50:33;9.35;;;6.55;;
20170;SDS011;10245;51.344;6.620;2023-03-01T13:53:03;9.77;;;7.15;;
20170;SDS011;10245;51.344;6.620;2023-03-01T13:55:35;9.98;;;6.63;;
20170;SDS011;10245;51.344;6.620;2023-03-01T13:58:05;9.07;;;6.18;;
20170;SDS011;10245;51.344;6.620;2023-03-01T14:00:54;10.02;;;6.55;;
20170;SDS011;10245;51.344;6.620;2023-03-01T14:03:19;8.52;;;6.10;;
20170;SDS011;10245;51.344;6.620;2023-03-01T14:05:50;10.00;;;6.00;;
20170;SDS011;10245;51.344;6.620;2023-03-01T14:08:35;10.20;;;6.20;;
20170;SDS011;10245;51.344;6.620;2023-03-01T14:17:20;9.23;;;6.15;;
20170;SDS011;10245;51.344;6.620;2023-03-01T14:20:03;11.80;;;7.05;;
20170;SDS011;10245;51.344;6.620;2023-03-01T14:22:36;11.00;;;6.43;;
20170;SDS011;10245;51.344;6.620;2023-03-01T14:25:04;10.85;;;6.57;;
20170;SDS011;10245;51.344;6.620;2023-03-01T14:27:41;10.18;;;6.40;;
20170;SDS011;10245;51.344;6.620;2023-03-01T14:30:10;10.73;;;6.72;;
20170;SDS011;10245;51.344;6.620;2023-03-01T14:32:38;10.93;;;6.97;;
20170;SDS011;10245;51.344;6.620;2023-03-01T14:35:02;11.20;;;7.15;;
20170;SDS011;10245;51.344;6.620;2023-03-01T14:37:26;12.93;;;7.63;;
20170;SDS011;10245;51.344;6.620;2023-03-01T14:39:54;9.45;;;6.85;;
20170;SDS011;10245;51.344;6.620;2023-03-01T14:42:18;12.35;;;7.03;;
20170;SDS011;10245;51.344;6.620;2023-03-01T14:44:44;10.50;;;6.57;;
20170;SDS011;10245;51.344;6.620;2023-03-01T14:47:12;10.07;;;7.32;;
20170;SDS011;10245;51.344;6.620;2023-03-01T14:49:49;9.57;;;6.93;;
20170;SDS011;10245;51.344;6.620;2023-03-01T14:52:21;11.20;;;6.82;;
20170;SDS011;10245;51.344;6.620;2023-03-01T14:54:56;9.85;;;7.00;;
20170;SDS011;10245;51.344;6.620;2023-03-01T14:57:20;12.02;;;7.38;;
20170;SDS011;10245;51.344;6.620;2023-03-01T14:59:46;10.98;;;7.07;;